Meteo Giornale » Osservazioni meteo Svizzera » Meiringen

ore: 16:50 - Osservazioni Meteo Meiringen
Lat. 46° 45' N Lon. 8° 7' E Alt. 577 metri s.l.m.

sereno Europe/Zurich

24 °C

Sereno

Temp. 24 Ore

15 °C

25 °C

Est/Nord-Est

31.5 Km/h

Dew point 13 °C

Umidità 50 %

Visibilità  10 Km

Il sole sorge alle ore 06:21

Il sole tramonta alle ore 20:42

Data e Ora Cielo e Fenomeni T °C DP °C Um. % Pres. hPa Vis. km Vento km/h
Oggi h: 16:50 sereno Sereno 24 13 50 1016 10 E/NE 31.5
Oggi h: 16:20 sereno Sereno 24 15 57 1017 10 NE 29.6
Oggi h: 15:50 sereno Sereno 23 16 64 1017 10 N/NE 27.8
Oggi h: 15:20 poco_nuvoloso Poco Nuvoloso 23 17 68 1018 10 E/NE 22.2
Oggi h: 14:50 poco_nuvoloso Poco Nuvoloso 22 17 73 1018 10 E 14.8
Oggi h: 14:20 poco_nuvoloso Poco Nuvoloso 20 17 82 1019 10 E 18.5
Oggi h: 13:50 coperto_pioggia Pioggia 18 17 93 1020 9 E 11.1
Oggi h: 13:20 coperto_pioggia Pioggia 18 15 82 1021 5 O/NO 20.3
Oggi h: 12:50 coperto_pioggia Pioggia Debole 20 16 77 1019 10 SO 14.8
Oggi h: 12:20 coperto_pioggia Pioggia Debole 21 16 73 1018 10 O 18.5
Oggi h: 11:50 nuvoloso Nuvoloso 23 16 64 1018 10 O/SO 14.8
Oggi h: 11:20 poco_nuvoloso Poco Nuvoloso 23 16 64 1018 10 O 13
Oggi h: 10:50 poco_nuvoloso Poco Nuvoloso 22 16 68 1018 10 O 9.3
Oggi h: 10:20 nuvoloso Nuvoloso 22 16 68 1018 10 N 3.7
Oggi h: 09:50 poco_nuvoloso Poco Nuvoloso 22 16 68 1018 10 N 1.8
Oggi h: 09:20 sereno Sereno 20 16 77 1018 10 N 3.7
Oggi h: 08:50 sereno Sereno 20 15 72 1018 10 N 5.5
Oggi h: 08:20 sereno Sereno 17 15 88 1018 10 N 1.8
Oggi h: 07:50 sereno Sereno 16 15 93 1018 10 E/SE 9.3
Oggi h: 07:20 poco_nuvoloso Poco Nuvoloso 15 14 93 1018 10 E 11.1
Oggi h: 06:50 poco_nuvoloso Poco Nuvoloso 15 14 93 1017 10 N 5.5
Oggi h: 06:20 sereno Sereno 16 15 93 1017 10 N 3.7
Oggi h: 05:50 poco_nuvoloso Poco Nuvoloso 16 15 93 1017 10 N 1.8
Oggi h: 05:20 molto_nuvoloso Molto Nuvoloso 16 15 93 1016 10 N 1.8
Oggi h: 04:50 molto_nuvoloso Molto Nuvoloso 16 15 93 1016 10 N 3.7
Oggi h: 04:20 molto_nuvoloso Molto Nuvoloso 17 16 93 1017 10 N 3.7
Oggi h: 03:50 molto_nuvoloso Molto Nuvoloso 18 16 88 1017 10 N 5.5
Oggi h: 02:50 molto_nuvoloso Molto Nuvoloso 19 16 82 1017 10 O 11.1
Oggi h: 01:50 coperto Coperto 18 17 93 1019 10 E 7.4
Oggi h: 01:20 nuvoloso_piovaschi Debole Rovescio di Pioggia 18 17 93 1019 10 O/SO 16.7
Oggi h: 00:50 coperto Coperto 18 17 93 1019 10 N 3.7
Oggi h: 00:20 coperto Coperto 18 17 93 1019 10 N 5.5
Ieri h: 23:50 coperto Coperto 19 17 88 1019 10 N 9.3
Ieri h: 23:20 coperto Coperto 18 17 93 1019 10 E 14.8
Ieri h: 22:50 nuvoloso_piovaschi Debole Rovescio di Pioggia 19 17 88 1020 10 N 0
Ieri h: 22:20 coperto_pioggia Pioggia Debole 19 17 88 1020 10 N 3.7
Ieri h: 21:50 coperto Coperto 19 16 82 1020 10 N 5.5
Ieri h: 21:20 molto_nuvoloso Molto Nuvoloso 20 17 82 1019 10 N 3.7
Ieri h: 20:50 molto_nuvoloso Molto Nuvoloso 20 17 82 1019 10 N 5.5
Ieri h: 20:20 molto_nuvoloso Molto Nuvoloso 20 16 77 1019 10 E 7.4
Ieri h: 19:50 coperto_pioggia Pioggia Debole 22 16 68 1019 10 O 7.4
Ieri h: 19:20 molto_nuvoloso Molto Nuvoloso 24 16 60 1018 10 O 22.2
Ieri h: 18:50 molto_nuvoloso Molto Nuvoloso 24 18 69 1018 10 N 9.3
Ieri h: 17:50 nuvoloso Nuvoloso 25 16 57 1017 10 NE 27.8